Aeroporto :
LOGIN :

Iscrizione | Disclaimer

   EN    FR    IT 

 










Sommario :    VFR   VFR Marginale   IFR   IFR Intensivo   IFR Molto Intensivo
Visibilità : 
Base nubi : 
>= 8 km
>= 3000ft
5 / 8 km
1000 / 3000 ft
1500m / 5 km
500 / 1000 ft
800 / 1500m
200 / 500 ft
< 800m
< 200 ft
Simboli :   Temporali  Nebbia  Neve Forte  Precipitazioni Forti  Vento > 20 kt
SIGMETs :   Varie  Temporali  Ghiacco  Turbolenza  Onda orograficha  Ceneri Vulcaniche






- Altitudine del aeroporto : 160 ft
- Codice IATA : LRT


LFRH - Lorient Lann Bihoue

ULTIMO METAR :
  • 031400Z AUTO 30014KT 240V360 9999 TS FEW040/// SCT046/// OVC056/// ///CB 20/10 Q1005 TEMPO 3500 SHRA

METARs OBSOLETI :
  • 031330Z AUTO 25012KT 9999 ///CB 22/13 Q1005 TEMPO 35012G22KT 3500 SHRA
  • 031300Z AUTO 25013KT 220V280 9999 ///CB 23/10 Q1006 TEMPO 35012G22KT 3500 SHRA
  • 031230Z AUTO 25013KT CAVOK 22/11 Q1006 TEMPO 35012G22KT 3500 SHRA SCT020CB
  • 031200Z AUTO 24010KT 210V270 CAVOK 23/10 Q1007 TEMPO 35012G22KT 3500 SHRA SCT020CB
  • 031130Z AUTO 24010KT 210V270 CAVOK 21/13 Q1007 TEMPO 35012G22KT 3500 SHRA SCT020CB

TAF TAF LFRH
Valido dal 03 a 12 ore il 04 a 12 ore UTC


031100Z 0312/0412 25010KT CAVOK
TEMPO 0313/0322 35012G22KT 3500 SHRA SCT020TCU
PROB30 0313/0318 TSRA SCT020CB
BECMG 0400/0403 02010KT BKN010
BECMG 0408/0410 36010G20KT SCT015



MetMap, La meteo Aeronautica in un colpo d'occhio ! - Copyright ORBIFLY Dicembre 2007 - Disclaimer

ORBIFLY MET'MAP TEAM :

Programmazione e sviluppo : Alexandra Zaïnal
Concezione : Baudouin d'Aumeries
Aiuto per la programmazione : Marc-Olivier Méhu
Supporto tecnico e logistico : Manuel Goepfert
Aiuto per la traduzione : Arnaldo La Scala

Contatto : metmap@orbifly.com




FONTI E CREDITI :

   NOAA